Time;durP1;ratioP1;P1;durP2;ratioP2;P2;SDS_P1;SDS_P2;PMS_P1;PMS_P2;Temp;Humidity;BMP_temperature;BMP_pressure;BME280_temperature;BME280_humidity;BME280_pressure;Samples;Min_cycle;Max_cycle;Signal;HPM_P1;HPM_P2
2021/06/20 00:01:50;;;;;;;20.70;10.75;;;20.30;99.90;;;;;;5063375;28;20036;-92
2021/06/20 00:04:16;;;;;;;22.95;10.27;;;20.40;99.90;;;;;;5051114;28;20085;-92
2021/06/20 00:06:47;;;;;;;16.10;9.75;;;20.30;99.90;;;;;;5032396;28;20865;-92
2021/06/20 00:09:13;;;;;;;17.33;8.15;;;20.30;99.90;;;;;;5054433;28;20078;-93
2021/06/20 00:11:40;;;;;;;14.02;6.78;;;20.20;99.90;;;;;;5081633;28;20139;-92
2021/06/20 00:14:06;;;;;;;12.90;5.95;;;20.10;99.90;;;;;;5046135;28;20363;-89
2021/06/20 00:16:33;;;;;;;11.23;5.82;;;20.10;99.90;;;;;;5042072;28;20081;-90
2021/06/20 00:19:01;;;;;;;8.27;4.63;;;20.10;99.90;;;;;;5048049;28;20121;-89
2021/06/20 00:21:26;;;;;;;7.93;4.45;;;20.00;99.30;;;;;;5034046;28;20043;-89
2021/06/20 00:23:53;;;;;;;8.60;4.15;;;19.90;99.90;;;;;;5052033;28;20028;-89
2021/06/20 00:26:18;;;;;;;7.35;3.90;;;19.90;99.30;;;;;;5061741;28;20296;-89
2021/06/20 00:28:44;;;;;;;11.43;3.30;;;19.80;99.60;;;;;;5050395;28;20028;-89
2021/06/20 00:31:10;;;;;;;6.50;4.05;;;19.50;99.60;;;;;;5035203;28;20092;-88
2021/06/20 00:33:36;;;;;;;11.30;4.75;;;19.80;99.90;;;;;;5050609;28;20111;-89
2021/06/20 00:36:02;;;;;;;8.77;4.25;;;19.90;99.90;;;;;;5052501;28;20536;-90
2021/06/20 00:38:28;;;;;;;11.48;4.20;;;19.90;99.90;;;;;;5052311;28;20047;-89
2021/06/20 00:40:54;;;;;;;7.60;3.60;;;19.80;99.90;;;;;;5047083;28;20036;-88
2021/06/20 00:43:19;;;;;;;9.30;4.45;;;19.80;99.80;;;;;;5052085;28;20068;-88
2021/06/20 00:45:46;;;;;;;5.22;3.47;;;19.80;99.90;;;;;;5053197;28;20535;-88
2021/06/20 00:48:12;;;;;;;9.15;3.45;;;19.80;99.90;;;;;;5051610;28;20600;-87
2021/06/20 00:50:37;;;;;;;8.32;3.78;;;19.70;99.90;;;;;;5037261;28;20028;-89
2021/06/20 00:53:04;;;;;;;8.27;2.88;;;19.30;99.90;;;;;;5046867;28;20032;-89
2021/06/20 00:55:31;;;;;;;6.45;3.00;;;19.70;99.80;;;;;;5034879;28;20031;-89
2021/06/20 00:58:03;;;;;;;6.50;3.03;;;19.80;99.40;;;;;;5049992;28;20476;-87
2021/06/20 01:00:29;;;;;;;5.10;2.83;;;19.80;99.90;;;;;;5062158;28;20077;-89
2021/06/20 01:02:55;;;;;;;12.07;3.15;;;19.70;99.70;;;;;;5050896;28;20642;-88
2021/06/20 01:05:20;;;;;;;9.45;2.97;;;19.70;99.80;;;;;;5064643;28;20055;-88
2021/06/20 01:07:50;;;;;;;6.53;3.22;;;19.70;99.80;;;;;;5063069;28;20503;-88
2021/06/20 01:10:16;;;;;;;11.88;3.28;;;19.70;99.90;;;;;;5034749;28;20061;-87
2021/06/20 01:12:42;;;;;;;5.57;2.58;;;19.70;99.90;;;;;;5063320;28;20031;-88
2021/06/20 01:15:08;;;;;;;11.40;2.70;;;19.60;99.30;;;;;;5034659;28;20024;-89
2021/06/20 01:17:34;;;;;;;6.63;2.67;;;19.70;99.50;;;;;;5032366;28;20050;-88
2021/06/20 01:19:59;;;;;;;6.50;2.50;;;19.60;99.50;;;;;;5049924;28;20044;-88
2021/06/20 01:22:30;;;;;;;10.82;2.80;;;19.60;99.70;;;;;;5064632;28;20392;-88
2021/06/20 01:24:57;;;;;;;5.05;2.42;;;19.60;99.70;;;;;;5064493;28;20240;-88
2021/06/20 01:27:46;;;;;;;6.55;2.42;;;19.50;99.40;;;;;;5027440;28;20536;-88
2021/06/20 01:30:17;;;;;;;7.65;2.83;;;19.60;99.20;;;;;;5049977;28;20056;-88
2021/06/20 01:32:43;;;;;;;11.25;2.88;;;19.60;99.70;;;;;;5062468;28;20488;-86
2021/06/20 01:35:09;;;;;;;5.55;2.13;;;19.60;98.70;;;;;;5049453;28;20114;-88
2021/06/20 01:37:35;;;;;;;5.00;2.78;;;19.60;99.10;;;;;;5050354;28;20043;-86
2021/06/20 01:40:01;;;;;;;4.40;2.85;;;19.60;98.90;;;;;;5048573;28;20040;-88
2021/06/20 01:42:26;;;;;;;9.38;2.97;;;19.60;98.60;;;;;;5061696;28;20472;-87
2021/06/20 01:44:55;;;;;;;9.35;3.03;;;19.70;99.00;;;;;;5032211;28;20626;-87
2021/06/20 01:47:21;;;;;;;6.25;2.85;;;19.60;99.40;;;;;;5049384;28;20526;-88
2021/06/20 01:49:47;;;;;;;9.25;2.80;;;19.50;99.20;;;;;;5048543;28;20055;-87
2021/06/20 01:52:17;;;;;;;9.23;3.85;;;19.60;99.40;;;;;;5047173;28;20067;-88
2021/06/20 01:54:52;;;;;;;8.40;3.08;;;19.60;99.20;;;;;;5031725;28;20024;-87
2021/06/20 01:57:31;;;;;;;;;;;19.60;99.20;;;;;;5049049;28;20063;-87
2021/06/20 01:59:58;;;;;;;8.48;3.45;;;19.60;99.20;;;;;;5065586;28;19923;-87
2021/06/20 02:02:24;;;;;;;5.18;2.58;;;19.60;99.70;;;;;;5061982;28;20082;-87
2021/06/20 02:04:50;;;;;;;11.20;3.17;;;19.60;99.40;;;;;;5050603;28;20387;-87
2021/06/20 02:07:16;;;;;;;9.80;3.13;;;19.70;99.30;;;;;;5033829;28;20027;-87
2021/06/20 02:09:42;;;;;;;12.10;4.00;;;19.60;99.70;;;;;;5062828;28;20107;-87
2021/06/20 02:12:09;;;;;;;7.20;2.92;;;19.60;99.40;;;;;;5049419;28;20024;-87
2021/06/20 02:14:35;;;;;;;6.38;2.97;;;19.70;99.00;;;;;;5050599;28;20081;-88
2021/06/20 02:17:20;;;;;;;16.80;3.78;;;19.70;99.20;;;;;;5049368;28;20310;-88
2021/06/20 02:19:46;;;;;;;8.35;3.50;;;19.70;99.40;;;;;;5059132;28;20042;-87
2021/06/20 02:22:12;;;;;;;13.45;3.83;;;19.70;99.10;;;;;;5049445;28;20093;-88
2021/06/20 02:24:38;;;;;;;9.93;3.13;;;19.70;98.90;;;;;;5051058;28;20036;-87
2021/06/20 02:27:05;;;;;;;6.90;3.47;;;19.70;99.00;;;;;;5050430;28;20032;-88
2021/06/20 02:29:31;;;;;;;10.13;4.07;;;19.70;99.00;;;;;;5046705;28;20031;-87
2021/06/20 02:31:56;;;;;;;12.38;4.15;;;19.70;99.00;;;;;;5037008;28;20495;-87
2021/06/20 02:34:22;;;;;;;11.73;3.65;;;19.70;99.20;;;;;;5029930;28;20040;-87
2021/06/20 02:36:48;;;;;;;13.27;4.55;;;19.80;99.10;;;;;;5049435;28;20111;-88
2021/06/20 02:39:13;;;;;;;14.13;4.70;;;19.70;99.40;;;;;;5050467;28;20077;-88
2021/06/20 02:41:39;;;;;;;15.68;4.93;;;19.70;99.40;;;;;;5044686;28;20036;-88
2021/06/20 02:44:04;;;;;;;14.70;6.00;;;19.70;99.40;;;;;;5049263;28;20058;-87
2021/06/20 02:46:30;;;;;;;14.35;5.32;;;19.80;99.40;;;;;;5029974;28;20111;-87
2021/06/20 02:48:56;;;;;;;15.38;4.95;;;19.80;99.10;;;;;;5047291;28;20449;-87
2021/06/20 02:51:21;;;;;;;11.50;5.13;;;19.70;99.10;;;;;;5067789;28;20537;-87
2021/06/20 02:53:47;;;;;;;17.45;5.82;;;19.70;99.40;;;;;;5031860;28;20143;-87
2021/06/20 02:56:13;;;;;;;13.32;5.45;;;19.70;99.30;;;;;;5061018;28;20036;-87
2021/06/20 02:58:38;;;;;;;15.43;5.55;;;19.70;99.30;;;;;;5048450;28;20027;-87
2021/06/20 03:01:04;;;;;;;14.70;5.60;;;19.70;99.50;;;;;;5082757;28;20024;-87
2021/06/20 03:03:29;;;;;;;21.75;6.25;;;19.70;99.60;;;;;;5047400;28;20086;-86
2021/06/20 03:05:55;;;;;;;16.60;6.15;;;19.80;99.40;;;;;;5030269;28;20031;-86
2021/06/20 03:08:21;;;;;;;14.88;5.80;;;19.80;99.30;;;;;;5048756;28;20062;-87
2021/06/20 03:10:46;;;;;;;15.63;5.80;;;19.90;99.30;;;;;;5064842;28;20036;-87
2021/06/20 03:13:13;;;;;;;11.77;5.13;;;19.90;99.20;;;;;;5061738;28;20077;-86
2021/06/20 03:15:39;;;;;;;9.90;5.13;;;20.00;98.50;;;;;;5049406;28;20534;-85
2021/06/20 03:18:05;;;;;;;11.93;4.70;;;20.20;97.80;;;;;;5048043;28;20069;-86
2021/06/20 03:20:31;;;;;;;9.40;4.22;;;20.20;97.30;;;;;;5031137;28;20037;-86
2021/06/20 03:22:57;;;;;;;10.45;3.75;;;20.20;96.60;;;;;;5064195;28;20475;-86
2021/06/20 03:25:23;;;;;;;7.63;3.88;;;20.10;97.20;;;;;;5048132;28;20056;-85
2021/06/20 03:27:48;;;;;;;7.63;3.60;;;20.10;96.70;;;;;;5032027;28;20114;-85
2021/06/20 03:30:14;;;;;;;12.00;3.75;;;20.10;96.30;;;;;;5045680;28;20165;-85
2021/06/20 03:32:40;;;;;;;7.07;3.15;;;20.00;97.00;;;;;;5048019;28;20455;-86
2021/06/20 03:35:06;;;;;;;11.70;3.13;;;20.00;96.20;;;;;;5047574;28;20590;-86
2021/06/20 03:37:32;;;;;;;8.25;3.08;;;19.90;96.60;;;;;;5031621;28;20030;-87
2021/06/20 03:39:58;;;;;;;13.70;3.97;;;19.80;96.90;;;;;;5031073;28;20047;-85
2021/06/20 03:42:23;;;;;;;4.38;3.03;;;19.60;97.20;;;;;;5049215;28;20056;-85
2021/06/20 03:44:49;;;;;;;5.90;2.70;;;19.60;97.00;;;;;;5032232;28;20067;-86
2021/06/20 03:47:15;;;;;;;5.05;2.60;;;19.60;96.90;;;;;;5045907;28;20507;-85
2021/06/20 03:49:40;;;;;;;6.82;2.83;;;19.60;96.50;;;;;;5049012;28;20429;-85
2021/06/20 03:52:06;;;;;;;8.65;3.30;;;19.60;96.50;;;;;;5048705;28;20024;-84
2021/06/20 03:54:31;;;;;;;7.78;3.30;;;19.50;96.80;;;;;;5048050;28;20043;-86
2021/06/20 03:56:57;;;;;;;9.32;2.75;;;19.40;97.20;;;;;;5032845;28;20028;-85
2021/06/20 03:59:26;;;;;;;7.32;2.55;;;19.50;96.40;;;;;;5031470;28;20035;-85
2021/06/20 04:01:52;;;;;;;8.63;3.05;;;19.50;96.30;;;;;;5047092;28;20040;-86
2021/06/20 04:04:19;;;;;;;5.18;2.80;;;19.50;95.80;;;;;;5047951;28;20050;-85
2021/06/20 04:06:45;;;;;;;6.15;3.10;;;19.50;96.50;;;;;;5047925;28;20085;-86
2021/06/20 04:09:11;;;;;;;13.80;3.05;;;19.30;97.40;;;;;;5063204;28;20028;-86
2021/06/20 04:11:37;;;;;;;8.88;2.75;;;19.30;96.30;;;;;;5047679;28;20028;-85
2021/06/20 04:14:02;;;;;;;7.22;2.75;;;19.30;96.40;;;;;;5048247;28;20527;-85
2021/06/20 04:16:28;;;;;;;10.98;2.70;;;19.40;96.60;;;;;;5044443;28;20122;-85
2021/06/20 04:18:54;;;;;;;4.88;2.47;;;19.40;96.40;;;;;;5051431;28;21562;-85
2021/06/20 04:21:19;;;;;;;4.25;2.47;;;19.50;96.20;;;;;;5035477;28;20845;-86
2021/06/20 04:23:45;;;;;;;5.90;2.50;;;19.60;96.50;;;;;;5035190;28;20027;-86
2021/06/20 04:26:11;;;;;;;8.57;3.08;;;19.70;96.10;;;;;;5063081;28;20108;-85
2021/06/20 04:28:37;;;;;;;8.20;2.78;;;19.70;97.00;;;;;;5052732;28;20028;-86
2021/06/20 04:31:03;;;;;;;12.30;3.00;;;19.80;96.90;;;;;;5031815;28;20058;-85
2021/06/20 04:33:28;;;;;;;9.85;3.28;;;19.80;96.40;;;;;;5050635;28;20028;-86
2021/06/20 04:35:54;;;;;;;3.80;2.45;;;19.90;96.50;;;;;;5086358;28;20028;-85
2021/06/20 04:38:20;;;;;;;5.18;2.50;;;20.00;95.70;;;;;;5030186;28;20094;-86
2021/06/20 04:40:47;;;;;;;6.32;2.97;;;20.00;95.50;;;;;;5051235;28;20974;-85
2021/06/20 04:43:25;;;;;;;5.20;2.60;;;20.10;95.90;;;;;;5051097;28;20032;-85
2021/06/20 04:45:51;;;;;;;5.60;2.65;;;20.20;95.30;;;;;;5052281;28;20035;-85
2021/06/20 04:48:17;;;;;;;5.43;2.38;;;20.20;94.40;;;;;;5047900;28;21001;-85
2021/06/20 04:50:42;;;;;;;6.72;1.98;;;20.30;94.40;;;;;;5065950;28;20389;-86
2021/06/20 04:53:08;;;;;;;7.93;3.15;;;20.20;93.90;;;;;;5049684;28;20031;-86
2021/06/20 04:55:33;;;;;;;5.55;2.20;;;20.20;94.30;;;;;;5050438;28;20093;-85
2021/06/20 04:57:59;;;;;;;4.28;2.17;;;20.20;93.20;;;;;;5050488;28;20560;-85
2021/06/20 05:00:25;;;;;;;6.65;2.47;;;20.40;92.50;;;;;;5049170;28;20138;-85
2021/06/20 05:02:51;;;;;;;13.73;2.80;;;20.70;92.30;;;;;;5033031;28;20032;-85
2021/06/20 05:05:16;;;;;;;5.20;2.53;;;20.70;92.40;;;;;;5062542;28;20036;-85
2021/06/20 05:07:42;;;;;;;5.75;2.47;;;20.70;92.40;;;;;;5051039;28;20031;-86
2021/06/20 05:10:08;;;;;;;4.88;2.20;;;20.70;92.90;;;;;;5047564;28;20039;-86
2021/06/20 05:12:34;;;;;;;4.97;2.13;;;20.80;92.50;;;;;;5051533;28;20032;-85
2021/06/20 05:14:59;;;;;;;9.73;2.80;;;20.80;92.30;;;;;;5064877;28;20035;-85
2021/06/20 05:17:25;;;;;;;8.65;2.45;;;21.10;91.50;;;;;;5065016;28;20441;-85
2021/06/20 05:19:51;;;;;;;6.35;2.70;;;21.70;90.70;;;;;;5051075;28;20039;-86
2021/06/20 05:22:17;;;;;;;4.50;1.83;;;22.50;87.80;;;;;;5034027;28;20024;-86
2021/06/20 05:24:43;;;;;;;3.97;2.20;;;22.00;89.60;;;;;;5033713;28;20042;-85
2021/06/20 05:27:09;;;;;;;5.45;2.42;;;21.80;90.30;;;;;;5067395;28;20033;-86
2021/06/20 05:29:35;;;;;;;5.80;2.30;;;21.80;89.90;;;;;;5049600;28;20068;-85
2021/06/20 05:32:00;;;;;;;5.80;2.78;;;21.60;90.70;;;;;;5063001;28;20077;-85
2021/06/20 05:34:26;;;;;;;6.43;2.40;;;21.50;91.00;;;;;;5051811;28;20028;-85
2021/06/20 05:36:52;;;;;;;5.95;2.65;;;21.40;92.10;;;;;;5057755;28;20036;-85
2021/06/20 05:39:18;;;;;;;6.10;2.08;;;21.30;91.30;;;;;;5059738;28;20047;-85
2021/06/20 05:41:43;;;;;;;3.03;2.30;;;21.30;90.20;;;;;;5042683;28;20565;-85
2021/06/20 05:44:09;;;;;;;5.80;2.53;;;22.60;88.10;;;;;;5064867;28;20059;-86
2021/06/20 05:46:35;;;;;;;8.77;1.95;;;23.30;82.80;;;;;;5049623;28;20116;-86
2021/06/20 05:49:01;;;;;;;5.72;2.17;;;25.10;78.30;;;;;;5061588;28;20594;-85
2021/06/20 05:51:26;;;;;;;8.77;2.83;;;24.10;78.80;;;;;;5050877;28;20032;-85
2021/06/20 05:53:52;;;;;;;13.07;2.60;;;24.30;79.90;;;;;;5085584;28;20027;-86
2021/06/20 05:56:17;;;;;;;7.20;2.28;;;24.50;77.20;;;;;;5066635;28;20035;-86
2021/06/20 05:58:43;;;;;;;7.50;3.03;;;25.40;74.00;;;;;;5048293;28;20158;-86
2021/06/20 06:01:09;;;;;;;10.70;3.22;;;24.60;76.30;;;;;;5048036;28;20070;-86
2021/06/20 06:03:35;;;;;;;5.55;2.88;;;24.00;78.90;;;;;;5048848;28;20119;-86
2021/06/20 06:06:01;;;;;;;4.90;2.08;;;23.60;78.90;;;;;;5051238;28;20878;-86
2021/06/20 06:08:27;;;;;;;4.00;2.38;;;24.90;74.90;;;;;;5049296;28;20044;-86
2021/06/20 06:10:52;;;;;;;4.65;1.98;;;26.20;71.50;;;;;;5049329;28;20086;-86
2021/06/20 06:13:18;;;;;;;3.85;1.70;;;26.70;68.20;;;;;;5049721;28;20027;-85
2021/06/20 06:15:44;;;;;;;7.30;1.58;;;27.10;68.00;;;;;;5045309;28;20516;-86
2021/06/20 06:18:09;;;;;;;5.38;1.60;;;27.80;63.70;;;;;;5063368;28;20027;-86
2021/06/20 06:20:35;;;;;;;3.92;1.80;;;27.40;64.30;;;;;;5032304;28;20386;-86
2021/06/20 06:23:01;;;;;;;4.13;1.42;;;27.60;63.70;;;;;;5046846;28;20115;-85
2021/06/20 06:25:26;;;;;;;7.82;1.75;;;27.60;65.00;;;;;;5043180;28;20051;-85
2021/06/20 06:27:52;;;;;;;4.47;1.42;;;28.10;63.80;;;;;;5061602;28;20042;-85
2021/06/20 06:30:19;;;;;;;2.47;1.65;;;27.60;63.80;;;;;;5048904;28;20089;-85
2021/06/20 06:32:45;;;;;;;5.72;1.70;;;27.50;65.50;;;;;;5045944;28;20032;-85
2021/06/20 06:35:11;;;;;;;3.95;1.83;;;27.30;64.50;;;;;;5065102;28;20054;-85
2021/06/20 06:37:38;;;;;;;8.93;2.05;;;27.20;66.20;;;;;;5031486;28;20107;-86
2021/06/20 06:40:04;;;;;;;3.50;1.73;;;27.10;63.90;;;;;;5043179;28;20032;-86
2021/06/20 06:42:30;;;;;;;4.45;1.85;;;27.10;64.60;;;;;;5033302;28;20710;-86
2021/06/20 06:44:57;;;;;;;2.20;1.80;;;27.60;65.40;;;;;;5051884;28;20028;-86
2021/06/20 06:47:23;;;;;;;3.90;1.90;;;28.20;62.90;;;;;;5032019;28;20577;-86
2021/06/20 06:49:49;;;;;;;4.32;1.80;;;28.00;62.90;;;;;;5030641;28;20031;-86
2021/06/20 06:52:15;;;;;;;2.00;1.55;;;27.10;64.60;;;;;;5046319;28;20032;-86
2021/06/20 06:54:40;;;;;;;7.82;2.05;;;25.60;67.20;;;;;;5056994;28;20020;-85
2021/06/20 06:57:06;;;;;;;2.83;1.75;;;25.40;70.50;;;;;;5063029;28;20380;-87
2021/06/20 06:59:32;;;;;;;4.97;1.95;;;26.00;69.30;;;;;;5047876;28;20032;-87
2021/06/20 07:01:58;;;;;;;3.25;1.60;;;27.10;69.70;;;;;;5048920;28;20058;-86
2021/06/20 07:04:23;;;;;;;3.72;1.95;;;26.00;65.80;;;;;;5050391;28;20960;-86
2021/06/20 07:06:49;;;;;;;7.10;1.85;;;25.10;70.00;;;;;;5033740;28;20028;-87
2021/06/20 07:09:15;;;;;;;4.88;1.35;;;25.00;69.90;;;;;;5047243;28;20089;-84
2021/06/20 07:11:41;;;;;;;3.00;1.60;;;24.40;71.80;;;;;;5062724;28;20024;-81
2021/06/20 07:14:06;;;;;;;2.70;1.63;;;24.10;72.30;;;;;;5047164;28;20066;-82
2021/06/20 07:16:32;;;;;;;3.53;1.48;;;23.80;74.80;;;;;;5047331;28;20663;-82
2021/06/20 07:18:58;;;;;;;4.78;2.10;;;23.70;76.30;;;;;;5048065;28;20032;-82
2021/06/20 07:21:23;;;;;;;11.55;2.20;;;24.00;72.40;;;;;;5046792;28;20118;-83
2021/06/20 07:23:49;;;;;;;2.97;1.80;;;23.80;74.70;;;;;;5059042;28;20032;-80
2021/06/20 07:26:15;;;;;;;4.68;1.65;;;24.20;73.50;;;;;;5047086;28;20088;-81
2021/06/20 07:28:49;;;;;;;2.58;1.77;;;24.80;72.80;;;;;;5045972;28;20035;-82
2021/06/20 07:31:15;;;;;;;;;;;25.30;70.90;;;;;;5063355;28;20071;-86
2021/06/20 07:33:40;;;;;;;7.55;1.80;;;25.10;70.70;;;;;;5065643;28;20336;-85
2021/06/20 07:36:10;;;;;;;5.50;2.05;;;26.00;70.70;;;;;;5046820;28;20025;-84
2021/06/20 07:38:36;;;;;;;5.40;1.70;;;26.90;67.10;;;;;;5047380;28;20032;-85
2021/06/20 07:41:02;;;;;;;4.93;1.50;;;27.00;66.00;;;;;;5061390;28;20068;-84
2021/06/20 07:43:27;;;;;;;6.65;1.90;;;26.60;64.60;;;;;;5047813;28;20286;-85
2021/06/20 07:45:55;;;;;;;3.60;1.67;;;26.50;64.50;;;;;;5063472;28;20118;-85
2021/06/20 07:48:22;;;;;;;2.88;1.83;;;26.50;64.80;;;;;;5044664;28;20495;-85
2021/06/20 07:50:47;;;;;;;4.57;1.48;;;26.70;65.20;;;;;;5046241;28;20508;-84
2021/06/20 07:53:13;;;;;;;2.83;1.80;;;25.60;68.40;;;;;;5045821;28;20034;-83
2021/06/20 07:55:40;;;;;;;4.07;1.60;;;25.20;70.10;;;;;;5062811;28;20483;-84
2021/06/20 07:58:05;;;;;;;2.95;1.35;;;25.20;67.30;;;;;;5060877;28;20877;-85
2021/06/20 08:00:31;;;;;;;4.03;1.50;;;24.90;70.80;;;;;;5058696;28;20032;-84
2021/06/20 08:02:56;;;;;;;6.05;1.80;;;25.20;71.20;;;;;;5047010;28;20024;-85
2021/06/20 08:05:22;;;;;;;2.00;1.40;;;26.60;67.90;;;;;;5048221;28;20493;-84
2021/06/20 08:07:48;;;;;;;3.65;1.52;;;27.00;62.40;;;;;;5048391;28;20036;-85
2021/06/20 08:10:14;;;;;;;4.53;1.55;;;27.20;63.50;;;;;;5047169;28;20032;-84
2021/06/20 08:12:39;;;;;;;2.30;1.70;;;27.20;62.00;;;;;;5047265;28;20127;-85
2021/06/20 08:15:06;;;;;;;3.70;1.88;;;26.20;65.60;;;;;;5046410;28;20032;-84
2021/06/20 08:17:32;;;;;;;4.53;2.17;;;26.10;66.30;;;;;;5046697;28;20020;-84
2021/06/20 08:19:57;;;;;;;3.03;2.03;;;25.70;66.40;;;;;;5046933;28;20115;-84
2021/06/20 08:22:23;;;;;;;4.22;1.50;;;25.00;67.20;;;;;;5043324;28;20024;-85
2021/06/20 08:24:50;;;;;;;3.45;1.80;;;24.50;69.20;;;;;;5078796;28;20020;-84
2021/06/20 08:27:16;;;;;;;3.08;1.95;;;24.20;70.20;;;;;;5041387;28;20031;-84
2021/06/20 08:29:41;;;;;;;5.22;1.88;;;24.20;70.60;;;;;;5063360;28;20024;-85
2021/06/20 08:32:07;;;;;;;4.32;1.67;;;24.80;70.20;;;;;;5030786;28;20123;-85
2021/06/20 08:34:33;;;;;;;3.58;1.67;;;25.30;68.90;;;;;;5048191;28;20032;-85
2021/06/20 08:37:00;;;;;;;2.03;1.50;;;25.60;67.30;;;;;;5046283;28;20032;-84
2021/06/20 08:39:26;;;;;;;2.17;1.65;;;25.80;66.70;;;;;;5029155;28;20123;-85
2021/06/20 08:41:52;;;;;;;7.43;1.67;;;25.20;67.20;;;;;;5030366;28;20127;-85
2021/06/20 08:44:25;;;;;;;2.38;1.30;;;25.50;67.20;;;;;;5047549;28;20020;-85
2021/06/20 08:46:52;;;;;;;4.00;1.92;;;26.50;67.10;;;;;;5063117;28;20038;-85
2021/06/20 08:49:18;;;;;;;2.22;1.50;;;26.90;63.10;;;;;;5060097;28;20513;-84
2021/06/20 08:51:48;;;;;;;3.10;1.40;;;26.50;64.30;;;;;;5040405;28;20074;-86
2021/06/20 08:54:13;;;;;;;5.50;2.00;;;26.30;63.70;;;;;;5030834;28;20024;-85
2021/06/20 08:56:39;;;;;;;4.00;1.60;;;26.20;64.40;;;;;;5058871;28;20047;-85
2021/06/20 08:59:05;;;;;;;4.28;1.42;;;25.60;64.60;;;;;;5044860;28;20024;-85
2021/06/20 09:01:32;;;;;;;4.00;1.60;;;25.40;64.80;;;;;;5028890;28;20039;-86
2021/06/20 09:03:59;;;;;;;2.53;1.40;;;26.10;64.40;;;;;;5048591;28;20629;-85
2021/06/20 09:06:25;;;;;;;5.65;1.50;;;25.70;64.20;;;;;;5052069;28;20020;-86
2021/06/20 09:08:52;;;;;;;6.43;1.50;;;26.10;62.80;;;;;;5047593;28;20370;-85
2021/06/20 09:11:30;;;;;;;2.45;1.35;;;26.10;62.80;;;;;;5067252;28;20066;-85
2021/06/20 09:14:08;;;;;;;1.55;1.40;;;27.00;60.80;;;;;;5068515;28;20024;-85
2021/06/20 09:16:46;;;;;;;2.10;1.70;;;27.30;63.20;;;;;;5085933;28;20093;-86
2021/06/20 09:19:11;;;;;;;3.10;1.60;;;26.70;61.20;;;;;;5073786;28;20020;-85
2021/06/20 09:21:37;;;;;;;2.40;1.65;;;26.70;65.30;;;;;;5046450;28;20038;-86
2021/06/20 09:24:04;;;;;;;2.75;1.08;;;27.60;63.10;;;;;;5042141;28;20377;-85
2021/06/20 09:26:37;;;;;;;4.07;1.23;;;27.60;58.00;;;;;;5029223;28;20503;-86
2021/06/20 09:29:05;;;;;;;3.45;1.35;;;27.50;58.30;;;;;;5046842;28;20039;-86
2021/06/20 09:31:44;;;;;;;3.30;1.00;;;27.60;58.00;;;;;;5046162;28;20114;-84
2021/06/20 09:34:10;;;;;;;1.00;0.90;;;27.50;58.50;;;;;;5057231;28;20016;-85
2021/06/20 09:36:36;;;;;;;1.80;1.27;;;27.50;57.60;;;;;;5047539;28;20532;-86
2021/06/20 09:39:23;;;;;;;1.48;1.17;;;27.90;60.70;;;;;;5060279;28;20036;-85
2021/06/20 09:42:04;;;;;;;12.10;4.10;;;27.40;54.10;;;;;;5057006;28;20052;-85
2021/06/20 09:44:42;;;;;;;14.55;4.97;;;28.00;58.10;;;;;;5044546;28;20032;-86
2021/06/20 09:47:15;;;;;;;2.08;1.55;;;27.90;56.80;;;;;;5061022;28;20043;-86
2021/06/20 09:49:41;;;;;;;2.60;1.50;;;27.50;54.70;;;;;;5028603;28;20028;-88
2021/06/20 09:52:08;;;;;;;3.35;1.30;;;26.70;57.20;;;;;;5040258;28;20030;-86
2021/06/20 09:54:35;;;;;;;4.20;1.40;;;26.80;58.60;;;;;;5044659;28;20032;-85
2021/06/20 09:57:01;;;;;;;1.70;1.00;;;27.10;56.10;;;;;;5045534;28;20032;-87
2021/06/20 09:59:28;;;;;;;2.80;1.60;;;27.50;57.40;;;;;;5041410;28;20017;-85
2021/06/20 10:01:54;;;;;;;2.55;1.52;;;27.70;59.90;;;;;;5043538;28;20079;-84
2021/06/20 10:04:20;;;;;;;4.65;2.00;;;28.20;57.80;;;;;;5042601;28;20039;-88
2021/06/20 10:06:46;;;;;;;3.00;1.20;;;28.30;56.00;;;;;;5058521;28;20088;-87
2021/06/20 10:09:11;;;;;;;3.47;1.90;;;28.50;55.00;;;;;;5033416;28;20062;-89
2021/06/20 10:11:37;;;;;;;1.73;1.20;;;28.30;54.80;;;;;;5047679;28;20059;-87
2021/06/20 10:14:06;;;;;;;5.82;1.67;;;28.10;56.10;;;;;;5023564;28;20797;-85
2021/06/20 10:16:35;;;;;;;4.50;1.42;;;28.40;59.40;;;;;;5025326;28;20028;-85
2021/06/20 10:19:11;;;;;;;4.30;1.00;;;28.20;56.30;;;;;;5029383;28;20032;-85
2021/06/20 10:21:38;;;;;;;3.15;1.17;;;28.70;55.70;;;;;;5031339;28;20036;-82
2021/06/20 10:24:18;;;;;;;5.75;1.30;;;28.40;55.00;;;;;;5043946;28;20031;-85
2021/06/20 10:26:58;;;;;;;2.67;1.40;;;28.40;54.50;;;;;;5029947;28;20035;-84
2021/06/20 10:29:28;;;;;;;3.13;1.38;;;28.10;53.50;;;;;;5058936;28;20028;-83
2021/06/20 10:31:54;;;;;;;1.73;1.52;;;28.70;55.30;;;;;;5058408;28;20032;-84
2021/06/20 10:34:24;;;;;;;5.57;1.45;;;28.50;54.10;;;;;;5030186;28;20731;-85
2021/06/20 10:36:52;;;;;;;1.85;1.20;;;28.80;56.30;;;;;;5044384;28;20031;-84
2021/06/20 10:39:18;;;;;;;3.28;1.25;;;28.90;53.60;;;;;;5041349;28;20032;-87
2021/06/20 10:41:44;;;;;;;3.25;1.20;;;29.40;54.80;;;;;;5047556;28;20036;-86
2021/06/20 10:44:10;;;;;;;1.30;1.20;;;28.60;57.80;;;;;;5033583;28;20499;-87
2021/06/20 10:46:36;;;;;;;2.63;1.45;;;28.60;55.50;;;;;;5051828;28;20043;-87
2021/06/20 10:49:13;;;;;;;5.25;1.30;;;28.80;57.70;;;;;;5051407;28;20597;-86
2021/06/20 10:51:38;;;;;;;4.38;1.67;;;28.70;56.70;;;;;;5051114;28;20032;-86
2021/06/20 10:54:04;;;;;;;1.73;1.63;;;28.90;57.30;;;;;;5051591;28;20455;-85
2021/06/20 10:56:31;;;;;;;4.05;1.33;;;29.20;57.80;;;;;;5051040;28;20610;-86
2021/06/20 10:58:57;;;;;;;2.75;1.40;;;28.90;56.20;;;;;;5048547;28;20032;-86
2021/06/20 11:01:24;;;;;;;3.05;1.58;;;28.40;57.20;;;;;;5051130;28;20059;-85
2021/06/20 11:03:52;;;;;;;9.73;2.03;;;28.30;54.70;;;;;;5026118;28;20043;-85
2021/06/20 11:06:22;;;;;;;1.75;1.33;;;28.00;55.80;;;;;;5075895;28;20043;-84
2021/06/20 11:08:56;;;;;;;5.28;1.40;;;27.90;56.90;;;;;;5030048;28;20444;-81
2021/06/20 11:11:31;;;;;;;2.25;1.48;;;28.40;57.40;;;;;;5050706;28;20055;-84
2021/06/20 11:13:56;;;;;;;;;;;28.70;55.70;;;;;;5032718;28;20036;-84
2021/06/20 11:16:36;;;;;;;3.97;1.55;;;28.90;54.50;;;;;;5078362;28;20334;-85
2021/06/20 11:19:08;;;;;;;2.47;1.40;;;29.20;57.20;;;;;;5058778;28;20026;-86
2021/06/20 11:21:35;;;;;;;3.67;1.70;;;29.00;57.00;;;;;;5031847;28;20539;-83
2021/06/20 11:24:01;;;;;;;3.85;1.25;;;29.30;52.50;;;;;;5045623;28;20035;-83
2021/06/20 11:26:26;;;;;;;2.10;1.45;;;28.90;55.50;;;;;;5057542;28;20028;-83
2021/06/20 11:29:03;;;;;;;1.67;1.23;;;29.40;57.00;;;;;;5045660;28;20102;-85
2021/06/20 11:31:29;;;;;;;2.03;1.20;;;29.30;56.10;;;;;;5045488;28;20081;-82
2021/06/20 11:33:55;;;;;;;2.85;1.45;;;29.20;56.30;;;;;;5031567;28;20047;-83
2021/06/20 11:36:22;;;;;;;3.35;1.70;;;29.30;59.90;;;;;;5010341;28;20032;-83
2021/06/20 11:38:48;;;;;;;1.73;1.13;;;29.40;55.40;;;;;;5077724;28;20032;-84
2021/06/20 11:41:18;;;;;;;2.28;1.10;;;29.20;56.30;;;;;;5061093;28;20051;-85
2021/06/20 11:44:04;;;;;;;3.60;1.02;;;29.10;54.60;;;;;;5046176;28;20123;-84
2021/06/20 11:46:31;;;;;;;2.35;1.20;;;28.90;56.30;;;;;;5045656;28;20028;-83
2021/06/20 11:49:07;;;;;;;3.33;1.33;;;28.60;53.50;;;;;;5043797;28;20024;-82
2021/06/20 11:51:32;;;;;;;2.67;1.30;;;28.50;57.50;;;;;;5060208;28;20183;-84
2021/06/20 11:54:20;;;;;;;1.50;1.15;;;29.00;56.60;;;;;;5091025;28;20512;-83
2021/06/20 11:56:51;;;;;;;2.22;1.38;;;29.60;53.40;;;;;;5074210;28;20031;-83
2021/06/20 11:59:27;;;;;;;1.65;1.20;;;29.30;51.50;;;;;;5093358;28;20490;-85
2021/06/20 12:01:53;;;;;;;3.15;1.23;;;28.70;54.40;;;;;;5061665;28;20059;-83
2021/06/20 12:04:20;;;;;;;1.60;1.15;;;28.80;55.20;;;;;;5060604;28;20257;-83
2021/06/20 12:06:46;;;;;;;2.75;1.25;;;28.40;56.50;;;;;;5044209;28;20086;-84
2021/06/20 12:09:12;;;;;;;3.65;1.40;;;28.30;55.40;;;;;;5041861;28;20166;-84
2021/06/20 12:11:38;;;;;;;1.52;1.35;;;28.10;53.60;;;;;;5056114;28;20122;-85
2021/06/20 12:14:04;;;;;;;1.77;1.20;;;27.80;57.80;;;;;;5075443;28;20028;-85
2021/06/20 12:16:30;;;;;;;2.33;1.15;;;28.20;58.50;;;;;;5045369;28;20490;-83
2021/06/20 12:18:59;;;;;;;8.30;1.40;;;28.20;55.30;;;;;;5076722;28;20107;-84
2021/06/20 12:21:26;;;;;;;4.30;1.40;;;28.40;57.50;;;;;;5061348;28;20020;-84
2021/06/20 12:23:58;;;;;;;5.13;1.42;;;28.30;57.10;;;;;;5059754;28;20543;-83
2021/06/20 12:26:28;;;;;;;2.70;1.20;;;28.10;57.20;;;;;;5060580;28;20020;-85
2021/06/20 12:28:55;;;;;;;3.65;1.27;;;27.90;54.50;;;;;;5045113;28;20483;-85
2021/06/20 12:31:21;;;;;;;1.45;1.02;;;27.90;58.70;;;;;;5042635;28;20037;-84
2021/06/20 12:33:46;;;;;;;2.50;1.10;;;27.70;59.10;;;;;;5060862;28;20486;-85
2021/06/20 12:36:12;;;;;;;3.17;1.52;;;27.70;57.10;;;;;;5051291;28;20585;-85
2021/06/20 12:38:38;;;;;;;2.85;1.30;;;27.80;56.20;;;;;;5043589;28;20032;-86
2021/06/20 12:41:22;;;;;;;1.27;1.17;;;28.10;58.20;;;;;;5054879;28;20101;-85
2021/06/20 12:44:07;;;;;;;1.80;1.33;;;28.00;59.10;;;;;;5047589;28;20093;-84
2021/06/20 12:46:34;;;;;;;;;;;28.10;60.10;;;;;;5057771;28;20085;-85